Time;durP1;ratioP1;P1;durP2;ratioP2;P2;SDS_P1;SDS_P2;PMS_P1;PMS_P2;Temp;Humidity;BMP_temperature;BMP_pressure;BME280_temperature;BME280_humidity;BME280_pressure;Samples;Min_cycle;Max_cycle;Signal;HPM_P1;HPM_P2
2023/10/28 00:01:11;;;;;;;0.00;0.00;;;14.00;80.70;;;;;;5028193;28;20247;-26
2023/10/28 00:03:39;;;;;;;0.00;0.00;;;14.00;80.60;;;;;;5028066;28;20232;-26
2023/10/28 00:06:09;;;;;;;0.00;0.00;;;13.90;80.50;;;;;;5028635;28;20244;-26
2023/10/28 00:08:36;;;;;;;0.00;0.00;;;13.90;80.50;;;;;;5026929;28;20209;-26
2023/10/28 00:11:10;;;;;;;0.00;0.00;;;13.90;80.50;;;;;;5027074;28;20726;-26
2023/10/28 00:13:39;;;;;;;0.00;0.00;;;13.90;80.60;;;;;;5028732;28;20287;-26
2023/10/28 00:16:09;;;;;;;0.00;0.00;;;13.90;80.50;;;;;;5028163;28;20253;-25
2023/10/28 00:18:41;;;;;;;0.00;0.00;;;13.90;80.50;;;;;;5028021;28;20241;-26
2023/10/28 00:21:11;;;;;;;0.00;0.00;;;13.90;80.40;;;;;;5027281;28;20201;-26
2023/10/28 00:23:39;;;;;;;0.00;0.00;;;13.90;80.40;;;;;;5028614;28;20200;-26
2023/10/28 00:26:06;;;;;;;0.00;0.00;;;13.90;80.50;;;;;;5026862;28;20209;-26
2023/10/28 00:28:33;;;;;;;0.00;0.00;;;13.90;80.50;;;;;;5026559;28;20215;-26
2023/10/28 00:31:02;;;;;;;0.00;0.00;;;13.90;80.60;;;;;;5026177;28;20299;-26
2023/10/28 00:33:34;;;;;;;0.00;0.00;;;13.90;80.60;;;;;;5026459;28;20201;-26
2023/10/28 00:36:07;;;;;;;0.00;0.00;;;13.90;80.50;;;;;;5027909;28;20749;-26
2023/10/28 00:38:34;;;;;;;0.00;0.00;;;13.90;80.40;;;;;;5027372;28;20197;-26
2023/10/28 00:41:06;;;;;;;0.00;0.00;;;13.90;80.50;;;;;;5010777;28;20307;-26
2023/10/28 00:43:35;;;;;;;0.00;0.00;;;13.80;80.40;;;;;;5020061;28;20300;-26
2023/10/28 00:46:07;;;;;;;0.00;0.00;;;13.90;80.50;;;;;;5027813;28;20213;-26
2023/10/28 00:48:34;;;;;;;0.00;0.00;;;13.90;80.50;;;;;;5021592;28;20197;-26
2023/10/28 00:51:02;;;;;;;0.00;0.00;;;13.80;80.50;;;;;;5027043;28;20560;-26
2023/10/28 00:53:38;;;;;;;0.00;0.00;;;13.80;80.40;;;;;;5026910;28;20747;-26
2023/10/28 00:56:06;;;;;;;0.00;0.00;;;13.80;80.40;;;;;;5026719;28;20212;-27
2023/10/28 00:58:34;;;;;;;0.00;0.00;;;13.80;80.50;;;;;;5008772;28;20205;-25
2023/10/28 01:01:03;;;;;;;0.00;0.00;;;13.80;80.40;;;;;;5007934;28;20758;-26
2023/10/28 01:03:33;;;;;;;0.00;0.00;;;13.80;80.40;;;;;;5022499;28;20968;-26
2023/10/28 01:06:06;;;;;;;0.00;0.00;;;13.80;80.40;;;;;;5050208;28;20239;-26
2023/10/28 01:08:36;;;;;;;0.00;0.00;;;13.80;80.40;;;;;;5025084;28;20188;-26
2023/10/28 01:11:06;;;;;;;0.00;0.00;;;13.80;80.40;;;;;;5036683;28;20205;-26
2023/10/28 01:13:33;;;;;;;0.00;0.00;;;13.80;80.40;;;;;;5019129;28;20220;-26
2023/10/28 01:16:08;;;;;;;0.00;0.00;;;13.80;80.50;;;;;;5025193;28;20205;-26
2023/10/28 01:18:37;;;;;;;0.00;0.00;;;13.80;80.50;;;;;;5043835;28;20682;-26
2023/10/28 01:21:14;;;;;;;0.00;0.00;;;13.80;80.50;;;;;;5041680;28;20234;-26
2023/10/28 01:23:45;;;;;;;0.00;0.00;;;13.80;80.50;;;;;;5046102;28;20216;-26
2023/10/28 01:26:13;;;;;;;0.00;0.00;;;13.80;80.40;;;;;;5049413;28;20200;-27
2023/10/28 01:28:43;;;;;;;0.00;0.00;;;13.80;80.30;;;;;;5039647;28;20209;-26
2023/10/28 01:31:16;;;;;;;0.00;0.00;;;13.70;80.30;;;;;;5028513;28;20655;-26
2023/10/28 01:33:44;;;;;;;0.00;0.00;;;13.70;80.20;;;;;;5029125;28;20213;-26
2023/10/28 01:36:16;;;;;;;0.00;0.00;;;13.70;80.30;;;;;;5029627;28;20262;-26
2023/10/28 01:38:47;;;;;;;0.00;0.00;;;13.70;80.40;;;;;;5012505;28;20275;-26
2023/10/28 01:41:16;;;;;;;0.00;0.00;;;13.70;80.30;;;;;;5029688;28;20217;-26
2023/10/28 01:43:46;;;;;;;0.00;0.00;;;13.70;80.30;;;;;;5031192;28;20193;-26
2023/10/28 01:46:16;;;;;;;0.00;0.00;;;13.70;80.40;;;;;;5030952;28;20292;-25
2023/10/28 01:48:45;;;;;;;0.00;0.00;;;13.70;80.40;;;;;;5030799;28;20205;-27
2023/10/28 01:51:17;;;;;;;0.00;0.00;;;13.70;80.40;;;;;;5010248;28;20225;-26
2023/10/28 01:53:44;;;;;;;0.00;0.00;;;13.70;80.40;;;;;;5010181;28;20320;-26
2023/10/28 01:56:11;;;;;;;0.00;0.00;;;13.70;80.30;;;;;;5011595;28;20237;-26
2023/10/28 01:58:40;;;;;;;0.00;0.00;;;13.70;80.40;;;;;;5011763;28;20217;-26
2023/10/28 02:01:10;;;;;;;0.00;0.00;;;13.70;80.40;;;;;;5026728;28;20284;-26
2023/10/28 02:03:37;;;;;;;0.00;0.00;;;13.70;80.30;;;;;;5031109;28;20264;-26
2023/10/28 02:06:06;;;;;;;0.00;0.00;;;13.70;80.30;;;;;;5028324;28;20777;-25
2023/10/28 02:08:37;;;;;;;0.00;0.00;;;13.70;80.30;;;;;;5031379;28;20200;-26
2023/10/28 02:11:07;;;;;;;0.00;0.00;;;13.70;80.30;;;;;;5031093;28;20200;-26
2023/10/28 02:13:39;;;;;;;0.00;0.00;;;13.70;80.30;;;;;;5013537;28;20671;-26
2023/10/28 02:16:08;;;;;;;0.00;0.00;;;13.70;80.30;;;;;;5028944;28;20289;-26
2023/10/28 02:18:36;;;;;;;0.00;0.00;;;13.70;80.30;;;;;;5024403;28;20206;-26
2023/10/28 02:21:05;;;;;;;0.00;0.00;;;13.70;80.30;;;;;;5024243;28;20723;-27
2023/10/28 02:23:35;;;;;;;0.00;0.00;;;13.70;80.30;;;;;;5029331;28;20212;-26
2023/10/28 02:26:02;;;;;;;0.00;0.00;;;13.70;80.20;;;;;;5030683;28;20205;-26
2023/10/28 02:28:31;;;;;;;0.00;0.00;;;13.70;80.10;;;;;;5029157;28;20215;-26
2023/10/28 02:31:03;;;;;;;0.00;0.00;;;13.70;80.20;;;;;;5025547;28;20211;-26
2023/10/28 02:33:31;;;;;;;0.00;0.00;;;13.70;80.20;;;;;;5015208;28;20225;-26
2023/10/28 02:36:04;;;;;;;0.00;0.00;;;13.70;80.20;;;;;;5029501;28;20713;-26
2023/10/28 02:38:32;;;;;;;0.00;0.00;;;13.60;80.20;;;;;;5030942;28;20213;-26
2023/10/28 02:41:04;;;;;;;0.00;0.00;;;13.60;80.20;;;;;;5030250;28;20284;-26
2023/10/28 02:43:35;;;;;;;0.00;0.00;;;13.70;80.20;;;;;;5026324;28;20251;-26
2023/10/28 02:46:08;;;;;;;0.00;0.00;;;13.70;80.20;;;;;;5030185;28;20630;-27
2023/10/28 02:48:38;;;;;;;0.00;0.00;;;13.70;80.30;;;;;;5030248;28;20209;-26
2023/10/28 02:51:11;;;;;;;0.00;0.00;;;13.70;80.30;;;;;;5028052;28;20295;-26
2023/10/28 02:53:38;;;;;;;0.00;0.00;;;13.70;80.30;;;;;;5030164;28;20591;-26
2023/10/28 02:56:08;;;;;;;0.00;0.00;;;13.70;80.30;;;;;;5030300;28;20657;-27
2023/10/28 02:58:39;;;;;;;0.00;0.00;;;13.70;80.20;;;;;;5028804;28;20217;-26
2023/10/28 03:01:11;;;;;;;0.00;0.00;;;13.70;80.30;;;;;;5028641;28;20216;-27
2023/10/28 03:03:42;;;;;;;0.00;0.00;;;13.70;80.20;;;;;;5029641;28;20259;-27
2023/10/28 03:06:11;;;;;;;0.00;0.00;;;13.70;80.30;;;;;;5027919;28;20231;-27
2023/10/28 03:08:39;;;;;;;0.00;0.00;;;13.70;80.30;;;;;;5029963;28;20217;-26
2023/10/28 03:11:06;;;;;;;0.00;0.00;;;13.70;80.30;;;;;;5027782;28;20300;-27
2023/10/28 03:13:34;;;;;;;0.00;0.00;;;13.70;80.20;;;;;;5012052;28;20224;-26
2023/10/28 03:16:01;;;;;;;0.00;0.00;;;13.70;80.30;;;;;;5027803;28;20640;-27
2023/10/28 03:18:30;;;;;;;0.00;0.00;;;13.70;80.20;;;;;;5029831;28;20287;-26
2023/10/28 03:21:03;;;;;;;0.00;0.00;;;13.70;80.20;;;;;;5028741;28;20567;-26
2023/10/28 03:23:32;;;;;;;0.00;0.00;;;13.70;80.20;;;;;;5029348;28;20256;-26
2023/10/28 03:25:59;;;;;;;0.00;0.00;;;13.80;80.40;;;;;;5025889;28;20209;-27
2023/10/28 03:28:28;;;;;;;0.00;0.00;;;13.80;80.30;;;;;;5027257;28;20209;-26
2023/10/28 03:30:56;;;;;;;0.00;0.00;;;13.80;80.20;;;;;;5028749;28;20686;-27
2023/10/28 03:33:26;;;;;;;0.00;0.00;;;13.80;80.30;;;;;;5028164;28;20420;-26
2023/10/28 03:35:56;;;;;;;0.00;0.00;;;13.80;80.30;;;;;;5010182;28;20206;-27
2023/10/28 03:38:24;;;;;;;0.00;0.00;;;13.80;80.30;;;;;;5029731;28;20181;-26
2023/10/28 03:40:51;;;;;;;0.00;0.00;;;13.80;80.30;;;;;;5044102;28;20205;-27
2023/10/28 03:43:20;;;;;;;0.00;0.00;;;13.80;80.30;;;;;;5011834;28;20227;-26
2023/10/28 03:45:48;;;;;;;0.00;0.00;;;13.80;80.30;;;;;;5027731;28;20201;-26
2023/10/28 03:48:18;;;;;;;0.00;0.00;;;13.80;80.20;;;;;;5029386;28;20236;-27
2023/10/28 03:51:00;;;;;;;0.00;0.00;;;13.80;80.20;;;;;;5023782;28;20217;-26
2023/10/28 03:53:27;;;;;;;0.00;0.00;;;13.80;80.20;;;;;;5029065;28;20225;-26
2023/10/28 03:55:55;;;;;;;0.00;0.00;;;13.80;80.20;;;;;;5027948;28;20203;-26
2023/10/28 03:58:24;;;;;;;0.00;0.00;;;13.80;80.30;;;;;;5028121;28;20789;-26
2023/10/28 04:00:59;;;;;;;0.00;0.00;;;13.90;80.40;;;;;;5028528;28;20292;-27
2023/10/28 04:03:26;;;;;;;0.00;0.00;;;13.80;80.30;;;;;;5027739;28;20233;-27
2023/10/28 04:05:55;;;;;;;0.00;0.00;;;13.90;80.30;;;;;;5027431;28;20213;-26
2023/10/28 04:08:23;;;;;;;0.00;0.00;;;13.90;80.40;;;;;;5025163;28;20216;-27
2023/10/28 04:10:50;;;;;;;0.00;0.00;;;13.90;80.30;;;;;;5016286;28;20287;-25
2023/10/28 04:13:22;;;;;;;0.00;0.00;;;13.90;80.30;;;;;;5027765;28;20322;-27
2023/10/28 04:15:52;;;;;;;0.00;0.00;;;13.90;80.30;;;;;;5028335;28;20200;-27
2023/10/28 04:18:22;;;;;;;0.00;0.00;;;13.90;80.30;;;;;;5025960;28;20271;-26
2023/10/28 04:20:54;;;;;;;0.00;0.00;;;13.90;80.30;;;;;;5011157;28;20733;-26
2023/10/28 04:23:27;;;;;;;0.00;0.00;;;13.90;80.30;;;;;;5026855;28;20204;-25
2023/10/28 04:25:56;;;;;;;0.00;0.00;;;13.90;80.30;;;;;;5028743;28;20217;-26
2023/10/28 04:28:27;;;;;;;0.00;0.00;;;13.90;80.30;;;;;;5027316;28;20209;-26
2023/10/28 04:30:58;;;;;;;0.00;0.00;;;13.90;80.30;;;;;;5030729;28;20282;-26
2023/10/28 04:33:26;;;;;;;0.00;0.00;;;14.00;80.30;;;;;;5004167;28;20227;-27
2023/10/28 04:35:53;;;;;;;0.00;0.00;;;13.90;80.30;;;;;;5027684;28;20236;-26
2023/10/28 04:38:23;;;;;;;0.00;0.00;;;14.00;80.30;;;;;;5029352;28;20283;-26
2023/10/28 04:40:50;;;;;;;0.00;0.00;;;14.00;80.30;;;;;;5013159;28;20294;-26
2023/10/28 04:43:21;;;;;;;0.00;0.00;;;14.00;80.30;;;;;;5022811;28;20275;-26
2023/10/28 04:45:50;;;;;;;0.00;0.00;;;14.00;81.10;;;;;;5029790;28;20204;-26
2023/10/28 04:48:21;;;;;;;0.00;0.00;;;14.00;80.30;;;;;;5031098;28;20561;-26
2023/10/28 04:50:50;;;;;;;0.00;0.00;;;14.00;80.20;;;;;;5032513;28;20207;-27
2023/10/28 04:53:17;;;;;;;0.00;0.00;;;14.00;80.30;;;;;;5029876;28;20706;-26
2023/10/28 04:55:45;;;;;;;0.00;0.00;;;14.00;80.30;;;;;;5029089;28;20721;-26
2023/10/28 04:58:14;;;;;;;0.00;0.00;;;14.00;80.30;;;;;;5027555;28;20676;-26
2023/10/28 05:00:42;;;;;;;0.00;0.00;;;14.00;80.30;;;;;;5022341;28;20240;-27
2023/10/28 05:03:10;;;;;;;0.00;0.00;;;14.00;80.30;;;;;;5016885;28;20328;-26
2023/10/28 05:05:39;;;;;;;0.00;0.00;;;14.00;80.20;;;;;;5009032;28;20205;-26
2023/10/28 05:08:07;;;;;;;0.00;0.00;;;14.00;80.20;;;;;;5022614;28;20201;-26
2023/10/28 05:10:34;;;;;;;0.00;0.00;;;14.10;80.30;;;;;;5021993;28;20214;-26
2023/10/28 05:13:03;;;;;;;0.00;0.00;;;14.10;80.30;;;;;;5043920;28;20273;-26
2023/10/28 05:15:32;;;;;;;0.00;0.00;;;14.10;80.30;;;;;;5034644;28;20589;-26
2023/10/28 05:17:59;;;;;;;0.00;0.00;;;14.10;80.30;;;;;;5020796;28;20223;-26
2023/10/28 05:20:28;;;;;;;0.00;0.00;;;14.10;80.30;;;;;;5033227;28;20212;-26
2023/10/28 05:22:58;;;;;;;0.00;0.00;;;14.10;80.30;;;;;;5036355;28;20652;-27
2023/10/28 05:25:28;;;;;;;0.00;0.00;;;14.10;80.30;;;;;;5033577;28;20224;-26
2023/10/28 05:27:55;;;;;;;0.00;0.00;;;14.10;80.30;;;;;;5033931;28;20657;-27
2023/10/28 05:30:23;;;;;;;0.00;0.00;;;14.10;80.30;;;;;;5013287;28;20235;-27
2023/10/28 05:32:53;;;;;;;0.00;0.00;;;14.10;80.30;;;;;;5025791;28;20240;-26
2023/10/28 05:35:22;;;;;;;0.00;0.00;;;14.10;80.20;;;;;;5029649;28;20201;-27
2023/10/28 05:37:49;;;;;;;0.00;0.00;;;14.10;80.20;;;;;;5024862;28;20295;-27
2023/10/28 05:40:16;;;;;;;0.00;0.00;;;14.10;80.20;;;;;;4997441;28;20304;-27
2023/10/28 05:42:46;;;;;;;0.00;0.00;;;14.10;80.20;;;;;;5024883;28;20224;-26
2023/10/28 05:45:14;;;;;;;0.00;0.00;;;14.10;80.20;;;;;;5021721;28;20209;-26
2023/10/28 05:47:41;;;;;;;0.00;0.00;;;14.20;80.30;;;;;;5019363;28;20202;-26
2023/10/28 05:50:15;;;;;;;0.00;0.00;;;14.20;80.30;;;;;;5041803;28;20197;-27
2023/10/28 05:52:45;;;;;;;0.00;0.00;;;14.10;80.20;;;;;;5038194;28;20208;-27
2023/10/28 05:55:12;;;;;;;0.00;0.00;;;14.10;80.10;;;;;;5023028;28;20215;-27
2023/10/28 05:57:40;;;;;;;0.00;0.00;;;14.10;80.10;;;;;;5041076;28;20212;-27
2023/10/28 06:00:10;;;;;;;0.00;0.00;;;14.10;80.20;;;;;;4995403;28;20211;-28
2023/10/28 06:02:38;;;;;;;0.00;0.00;;;14.20;80.20;;;;;;5013899;28;20233;-27
2023/10/28 06:05:08;;;;;;;0.00;0.00;;;14.20;80.30;;;;;;5025046;28;20209;-26
2023/10/28 06:07:47;;;;;;;0.00;0.00;;;14.20;80.20;;;;;;5027501;28;20211;-26
2023/10/28 06:10:17;;;;;;;0.00;0.00;;;14.20;80.20;;;;;;5036131;28;20240;-26
2023/10/28 06:12:47;;;;;;;0.00;0.00;;;14.20;80.30;;;;;;5019806;28;20214;-27
2023/10/28 06:15:16;;;;;;;0.00;0.00;;;14.20;80.20;;;;;;5020875;28;20332;-26
2023/10/28 06:17:46;;;;;;;0.00;0.00;;;14.10;80.10;;;;;;5024904;28;20205;-27
2023/10/28 06:20:14;;;;;;;0.00;0.00;;;14.10;80.10;;;;;;5025953;28;20216;-26
2023/10/28 06:22:42;;;;;;;0.00;0.00;;;14.10;80.10;;;;;;5029187;28;20444;-26
2023/10/28 06:25:14;;;;;;;0.00;0.00;;;14.10;80.10;;;;;;5023678;28;20232;-26
2023/10/28 06:27:44;;;;;;;0.00;0.00;;;14.10;80.10;;;;;;5016891;28;20779;-26
2023/10/28 06:30:14;;;;;;;0.00;0.00;;;14.10;80.10;;;;;;5032797;28;20203;-27
2023/10/28 06:32:44;;;;;;;0.00;0.00;;;14.10;80.20;;;;;;5034097;28;20244;-26
2023/10/28 06:35:15;;;;;;;0.00;0.00;;;14.10;80.20;;;;;;5018415;28;20229;-27
2023/10/28 06:37:47;;;;;;;0.00;0.00;;;14.10;80.20;;;;;;5022078;28;20209;-26
2023/10/28 06:40:17;;;;;;;0.00;0.00;;;14.10;80.20;;;;;;5025598;28;20297;-27
2023/10/28 06:42:44;;;;;;;0.00;0.00;;;14.10;80.20;;;;;;5025473;28;20583;-26
2023/10/28 06:45:13;;;;;;;0.00;0.00;;;14.10;80.30;;;;;;5023071;28;20220;-27
2023/10/28 06:47:43;;;;;;;0.00;0.00;;;14.20;80.40;;;;;;5026501;28;20211;-26
2023/10/28 06:50:10;;;;;;;0.00;0.00;;;14.20;80.40;;;;;;5015574;28;20563;-26
2023/10/28 06:52:42;;;;;;;0.00;0.00;;;14.20;80.30;;;;;;5013078;28;20252;-27
2023/10/28 06:55:12;;;;;;;0.00;0.00;;;14.20;81.10;;;;;;5015701;28;20197;-26
2023/10/28 06:57:41;;;;;;;0.00;0.00;;;14.20;80.30;;;;;;5020475;28;20205;-26
2023/10/28 07:00:17;;;;;;;0.00;0.00;;;14.20;80.20;;;;;;5022901;28;20212;-27
2023/10/28 07:02:44;;;;;;;0.00;0.00;;;14.20;80.30;;;;;;5018802;28;20247;-26
2023/10/28 07:05:14;;;;;;;0.00;0.00;;;14.20;80.30;;;;;;5042013;28;20733;-26
2023/10/28 07:07:44;;;;;;;0.00;0.00;;;14.20;80.30;;;;;;5032987;28;20208;-26
2023/10/28 07:10:16;;;;;;;0.00;0.00;;;14.20;80.30;;;;;;5034121;28;20209;-27
2023/10/28 07:12:44;;;;;;;0.00;0.00;;;14.20;80.30;;;;;;5022280;28;20219;-27
2023/10/28 07:15:11;;;;;;;0.00;0.00;;;14.30;80.40;;;;;;5008680;28;21277;-27
2023/10/28 07:17:39;;;;;;;0.00;0.00;;;14.30;80.30;;;;;;5027509;28;20209;-27
2023/10/28 07:20:07;;;;;;;0.00;0.00;;;14.30;80.30;;;;;;5009940;28;20197;-28
2023/10/28 07:22:37;;;;;;;0.00;0.00;;;14.30;80.30;;;;;;5032249;28;20200;-27
2023/10/28 07:25:06;;;;;;;0.00;0.00;;;14.30;80.30;;;;;;5043461;28;20276;-27
2023/10/28 07:27:33;;;;;;;0.00;0.00;;;14.30;80.30;;;;;;5010315;28;20216;-27
2023/10/28 07:30:03;;;;;;;0.00;0.00;;;14.30;80.40;;;;;;4998120;28;20196;-27
2023/10/28 07:32:31;;;;;;;0.00;0.00;;;14.30;80.30;;;;;;5027128;28;20264;-27
2023/10/28 07:35:02;;;;;;;0.00;0.00;;;14.30;80.40;;;;;;5009768;28;20212;-27
2023/10/28 07:37:30;;;;;;;0.00;0.00;;;14.30;80.40;;;;;;5021573;28;20216;-27
2023/10/28 07:40:04;;;;;;;0.00;0.00;;;14.40;80.40;;;;;;5022543;28;20338;-27
2023/10/28 07:42:36;;;;;;;0.00;0.00;;;14.40;80.40;;;;;;5021762;28;20506;-27
2023/10/28 07:45:04;;;;;;;0.00;0.00;;;14.40;80.40;;;;;;5024382;28;20233;-27
2023/10/28 07:47:31;;;;;;;0.00;0.00;;;14.40;80.30;;;;;;5009385;28;20206;-27
2023/10/28 07:49:58;;;;;;;0.00;0.00;;;14.40;80.40;;;;;;5001822;28;20533;-27
2023/10/28 07:52:28;;;;;;;0.00;0.00;;;14.40;80.40;;;;;;5027298;28;20221;-28
2023/10/28 07:54:57;;;;;;;0.00;0.00;;;14.40;80.40;;;;;;5039234;28;20213;-27
2023/10/28 07:57:24;;;;;;;0.00;0.00;;;14.50;80.40;;;;;;5028601;28;20207;-28
2023/10/28 07:59:53;;;;;;;0.00;0.00;;;14.50;80.40;;;;;;5026931;28;20201;-27
2023/10/28 08:02:20;;;;;;;0.00;0.00;;;14.50;80.30;;;;;;5025237;28;20332;-27
2023/10/28 08:04:55;;;;;;;0.00;0.00;;;14.50;80.30;;;;;;5026441;28;21935;-28
2023/10/28 08:07:25;;;;;;;0.00;0.00;;;14.50;80.30;;;;;;5021833;28;20780;-27
2023/10/28 08:09:52;;;;;;;0.00;0.00;;;14.50;80.30;;;;;;5026928;28;20228;-27
2023/10/28 08:12:22;;;;;;;0.00;0.00;;;14.50;80.20;;;;;;5029096;28;20327;-28
2023/10/28 08:14:49;;;;;;;0.00;0.00;;;14.50;80.20;;;;;;5022784;28;20264;-28
2023/10/28 08:17:21;;;;;;;0.00;0.00;;;14.50;80.20;;;;;;5021316;28;20209;-27
2023/10/28 08:19:51;;;;;;;0.00;0.00;;;14.50;80.20;;;;;;5009146;28;20200;-27
2023/10/28 08:22:21;;;;;;;0.00;0.00;;;14.50;80.10;;;;;;5012130;28;20759;-28
2023/10/28 08:24:48;;;;;;;0.00;0.00;;;14.50;80.20;;;;;;5016089;28;20219;-27
2023/10/28 08:27:18;;;;;;;0.00;0.00;;;14.50;80.10;;;;;;5032530;28;20278;-27
2023/10/28 08:29:49;;;;;;;0.00;0.00;;;14.50;80.10;;;;;;5031797;28;20275;-27
2023/10/28 08:32:18;;;;;;;0.00;0.00;;;14.50;80.10;;;;;;5024916;28;20204;-27
2023/10/28 08:34:48;;;;;;;0.00;0.00;;;14.50;80.10;;;;;;5023386;28;20224;-28
2023/10/28 08:37:18;;;;;;;0.00;0.00;;;14.50;80.10;;;;;;5027131;28;20205;-27
2023/10/28 08:39:53;;;;;;;0.00;0.00;;;14.50;80.00;;;;;;5022048;28;20299;-28
2023/10/28 08:42:20;;;;;;;0.00;0.00;;;14.50;80.10;;;;;;5024634;28;20208;-27
2023/10/28 08:44:50;;;;;;;0.00;0.00;;;14.50;80.10;;;;;;5026513;28;20231;-28
2023/10/28 08:47:23;;;;;;;0.00;0.00;;;14.50;80.10;;;;;;5027093;28;20217;-28
2023/10/28 08:49:54;;;;;;;0.00;0.00;;;14.50;80.10;;;;;;5028638;28;20204;-28
2023/10/28 08:52:25;;;;;;;0.00;0.00;;;14.50;80.30;;;;;;5032158;28;20873;-27
2023/10/28 08:54:57;;;;;;;0.00;0.00;;;14.50;80.10;;;;;;5045430;28;20619;-28
2023/10/28 08:57:28;;;;;;;0.00;0.00;;;14.50;80.10;;;;;;5039239;28;20528;-28
2023/10/28 08:59:58;;;;;;;0.00;0.00;;;14.50;80.10;;;;;;5025020;28;20287;-28
2023/10/28 09:02:30;;;;;;;0.00;0.00;;;14.50;80.10;;;;;;5023952;28;20763;-27
2023/10/28 09:04:57;;;;;;;0.00;0.00;;;14.50;79.90;;;;;;5026500;28;20524;-27
2023/10/28 09:07:24;;;;;;;0.00;0.00;;;14.50;80.10;;;;;;5004820;28;20669;-27
2023/10/28 09:10:03;;;;;;;0.00;0.00;;;14.50;80.00;;;;;;5005632;28;20237;-27
2023/10/28 09:12:36;;;;;;;0.00;0.00;;;14.50;80.00;;;;;;5023689;28;20217;-28
2023/10/28 09:15:08;;;;;;;0.00;0.00;;;14.60;80.00;;;;;;5020770;28;21765;-29
2023/10/28 09:17:39;;;;;;;0.00;0.00;;;14.50;80.00;;;;;;5027946;28;20201;-28
2023/10/28 09:20:09;;;;;;;0.00;0.00;;;14.60;80.00;;;;;;5013382;28;20671;-29
2023/10/28 09:22:39;;;;;;;0.00;0.00;;;14.60;80.20;;;;;;5026511;28;20764;-28
2023/10/28 09:25:14;;;;;;;0.00;0.00;;;14.60;80.00;;;;;;5031585;28;20717;-28
2023/10/28 09:27:47;;;;;;;0.00;0.00;;;14.60;79.90;;;;;;5021588;28;20213;-28
2023/10/28 09:30:21;;;;;;;0.00;0.00;;;14.60;79.80;;;;;;5025094;28;20215;-28
2023/10/28 09:32:57;;;;;;;0.00;0.00;;;14.60;79.90;;;;;;5030824;28;20969;-28
2023/10/28 09:35:28;;;;;;;0.00;0.00;;;14.60;79.80;;;;;;5031111;28;20209;-27
2023/10/28 09:37:59;;;;;;;0.00;0.00;;;14.60;79.90;;;;;;5029697;28;20209;-28
2023/10/28 09:40:27;;;;;;;0.00;0.00;;;14.60;79.80;;;;;;5029727;28;20247;-28
2023/10/28 09:42:55;;;;;;;0.00;0.00;;;14.60;79.80;;;;;;5009848;28;20221;-28
2023/10/28 09:45:22;;;;;;;0.00;0.00;;;14.60;79.80;;;;;;5019594;28;20287;-28
2023/10/28 09:47:58;;;;;;;0.00;0.00;;;14.60;79.80;;;;;;5016230;28;20308;-27
2023/10/28 09:50:30;;;;;;;0.00;0.00;;;14.60;79.80;;;;;;5011520;28;20761;-28
2023/10/28 09:52:58;;;;;;;0.00;0.00;;;14.70;79.90;;;;;;5028043;28;20209;-29
2023/10/28 09:55:37;;;;;;;0.00;0.00;;;14.70;79.80;;;;;;5030937;28;20235;-28
2023/10/28 09:58:16;;;;;;;0.00;0.00;;;14.70;79.80;;;;;;5015794;28;20204;-28
2023/10/28 10:00:54;;;;;;;0.00;0.00;;;14.70;79.90;;;;;;5010288;28;20220;-28
2023/10/28 10:03:41;;;;;;;0.00;0.00;;;14.70;79.90;;;;;;5024611;28;20335;-28
2023/10/28 10:06:12;;;;;;;0.00;0.00;;;14.80;80.00;;;;;;5019644;28;20238;-27
2023/10/28 10:08:55;;;;;;;0.00;0.00;;;14.80;80.00;;;;;;5009967;28;20268;-28
2023/10/28 10:11:26;;;;;;;0.00;0.00;;;14.80;80.00;;;;;;5035844;28;20212;-28
2023/10/28 10:14:06;;;;;;;0.00;0.00;;;14.80;80.00;;;;;;5011494;28;20684;-28
2023/10/28 10:16:46;;;;;;;0.00;0.00;;;14.90;80.00;;;;;;5006954;28;20229;-28
2023/10/28 10:19:29;;;;;;;0.00;0.00;;;14.90;80.00;;;;;;5016939;28;20205;-29
2023/10/28 10:22:02;;;;;;;0.00;0.00;;;15.00;79.90;;;;;;5026625;28;20193;-28
2023/10/28 10:24:32;;;;;;;0.00;0.00;;;15.00;79.90;;;;;;5041977;28;20663;-28
2023/10/28 10:27:05;;;;;;;0.00;0.00;;;15.00;79.70;;;;;;5027538;28;20221;-28
2023/10/28 10:29:43;;;;;;;0.00;0.00;;;15.00;79.80;;;;;;5014004;28;20197;-27
2023/10/28 10:32:18;;;;;;;0.00;0.00;;;15.00;79.70;;;;;;5026663;28;20215;-28
2023/10/28 10:34:45;;;;;;;0.00;0.00;;;15.00;79.60;;;;;;5019238;28;20283;-28
2023/10/28 10:37:31;;;;;;;0.00;0.00;;;15.00;79.50;;;;;;5027346;28;20201;-28
2023/10/28 10:40:07;;;;;;;0.00;0.00;;;15.10;79.90;;;;;;5010783;28;20280;-29
2023/10/28 10:42:40;;;;;;;0.00;0.00;;;15.10;79.80;;;;;;5022652;28;20223;-28
2023/10/28 10:45:08;;;;;;;0.00;0.00;;;15.10;79.80;;;;;;5025229;28;20201;-28
2023/10/28 10:47:40;;;;;;;0.00;0.00;;;15.20;79.90;;;;;;5043162;28;20207;-28
2023/10/28 10:50:10;;;;;;;0.00;0.00;;;15.20;79.90;;;;;;5046836;28;20224;-28
2023/10/28 10:52:42;;;;;;;0.00;0.00;;;15.20;79.80;;;;;;5026723;28;20306;-28
2023/10/28 10:55:11;;;;;;;0.00;0.00;;;15.20;79.70;;;;;;5022429;28;20209;-28
2023/10/28 10:57:38;;;;;;;0.00;0.00;;;15.30;79.70;;;;;;5021110;28;20280;-28
2023/10/28 11:00:15;;;;;;;0.00;0.00;;;15.30;79.70;;;;;;5018849;28;20210;-28
2023/10/28 11:02:45;;;;;;;0.00;0.00;;;15.30;79.70;;;;;;5007981;28;20315;-28
2023/10/28 11:05:16;;;;;;;0.00;0.00;;;15.40;79.90;;;;;;5012718;28;20197;-27
2023/10/28 11:07:46;;;;;;;0.00;0.00;;;15.40;79.70;;;;;;5043235;28;20208;-29
2023/10/28 11:10:13;;;;;;;0.00;0.00;;;15.40;79.50;;;;;;5044711;28;20674;-28
2023/10/28 11:12:41;;;;;;;0.00;0.00;;;15.40;79.60;;;;;;5018675;28;20575;-28
2023/10/28 11:15:10;;;;;;;0.00;0.00;;;15.40;79.50;;;;;;5011088;28;20233;-28
2023/10/28 11:17:39;;;;;;;0.00;0.00;;;15.40;79.70;;;;;;5037720;28;20255;-28
2023/10/28 11:20:09;;;;;;;0.00;0.00;;;15.40;79.60;;;;;;5023192;28;20219;-28
2023/10/28 11:22:39;;;;;;;0.00;0.00;;;15.40;79.50;;;;;;5025767;28;20201;-28
2023/10/28 11:25:07;;;;;;;0.00;0.00;;;15.40;79.50;;;;;;5023800;28;20292;-28
2023/10/28 11:27:34;;;;;;;0.00;0.00;;;15.50;79.50;;;;;;5025683;28;20216;-28
2023/10/28 11:30:09;;;;;;;0.00;0.00;;;15.50;79.70;;;;;;5022069;28;20240;-28
2023/10/28 11:32:41;;;;;;;0.00;0.00;;;15.50;79.30;;;;;;5038519;28;20274;-28
2023/10/28 11:35:10;;;;;;;0.00;0.00;;;15.50;79.30;;;;;;5025425;28;20225;-28
2023/10/28 11:37:42;;;;;;;0.00;0.00;;;15.50;79.30;;;;;;5018801;28;20247;-28
2023/10/28 11:40:12;;;;;;;0.00;0.00;;;15.50;79.40;;;;;;5022020;28;20564;-28
2023/10/28 11:42:42;;;;;;;0.30;0.00;;;15.60;79.30;;;;;;5040266;28;20208;-28
2023/10/28 11:45:09;;;;;;;0.00;0.00;;;15.60;79.60;;;;;;5029642;28;20212;-29
2023/10/28 11:47:40;;;;;;;0.00;0.00;;;15.60;79.50;;;;;;5005882;28;20216;-29
2023/10/28 11:50:08;;;;;;;0.00;0.00;;;15.60;79.70;;;;;;5007675;28;20417;-28
2023/10/28 11:52:38;;;;;;;0.00;0.00;;;15.70;79.40;;;;;;5018110;28;20216;-29
2023/10/28 11:55:06;;;;;;;0.00;0.00;;;15.70;79.60;;;;;;5033482;28;20273;-29
2023/10/28 11:57:35;;;;;;;0.00;0.00;;;15.70;79.50;;;;;;5027389;28;20611;-33
2023/10/28 12:00:10;;;;;;;0.00;0.00;;;15.80;79.70;;;;;;5027120;28;20588;-30
2023/10/28 12:02:37;;;;;;;0.00;0.00;;;15.80;79.50;;;;;;5027587;28;20322;-29
2023/10/28 12:05:06;;;;;;;0.00;0.00;;;15.80;79.50;;;;;;5040851;28;20323;-29
2023/10/28 12:07:36;;;;;;;0.00;0.00;;;15.80;79.40;;;;;;5032490;28;20216;-29
2023/10/28 12:10:06;;;;;;;0.00;0.00;;;15.90;79.10;;;;;;5006907;28;20221;-30
2023/10/28 12:12:33;;;;;;;0.00;0.00;;;15.90;79.10;;;;;;5014912;28;21001;-29
2023/10/28 12:15:03;;;;;;;0.00;0.00;;;15.90;79.20;;;;;;5008379;28;20214;-29
2023/10/28 12:17:33;;;;;;;0.00;0.00;;;16.00;79.20;;;;;;5007758;28;20237;-29
2023/10/28 12:20:07;;;;;;;0.00;0.00;;;16.00;79.30;;;;;;5012699;28;20237;-29
2023/10/28 12:22:37;;;;;;;0.00;0.00;;;16.00;79.30;;;;;;5023947;28;20196;-29
2023/10/28 12:25:09;;;;;;;0.00;0.00;;;16.00;79.10;;;;;;5029784;28;20218;-29
2023/10/28 12:27:36;;;;;;;0.00;0.00;;;16.00;79.10;;;;;;5025635;28;20221;-29
2023/10/28 12:30:08;;;;;;;0.00;0.00;;;16.10;79.30;;;;;;5030748;28;20209;-29
2023/10/28 12:32:37;;;;;;;0.00;0.00;;;16.10;79.10;;;;;;5011303;28;20244;-29
2023/10/28 12:35:08;;;;;;;0.00;0.00;;;16.10;79.30;;;;;;5009307;28;20281;-29
2023/10/28 12:37:35;;;;;;;0.00;0.00;;;16.10;79.30;;;;;;5013550;28;20202;-29
2023/10/28 12:40:02;;;;;;;0.00;0.00;;;16.20;78.50;;;;;;5015314;28;20605;-29
2023/10/28 12:42:36;;;;;;;0.00;0.00;;;16.20;78.70;;;;;;5038117;28;20265;-29
2023/10/28 12:45:04;;;;;;;0.00;0.00;;;16.20;78.70;;;;;;5024358;28;20996;-29
2023/10/28 12:47:32;;;;;;;0.00;0.00;;;16.20;78.80;;;;;;5029747;28;20220;-29
2023/10/28 12:50:04;;;;;;;0.00;0.00;;;16.20;79.00;;;;;;5025018;28;20205;-27
2023/10/28 12:52:33;;;;;;;0.00;0.00;;;16.20;78.50;;;;;;5023566;28;20603;-29
2023/10/28 12:55:05;;;;;;;0.00;0.00;;;16.20;78.50;;;;;;5027617;28;20312;-29
2023/10/28 12:57:32;;;;;;;0.00;0.00;;;16.20;78.60;;;;;;5020270;28;20284;-29
2023/10/28 12:59:59;;;;;;;0.00;0.00;;;16.20;78.60;;;;;;5028512;28;20701;-29
2023/10/28 13:02:30;;;;;;;0.00;0.00;;;16.20;78.60;;;;;;5023746;28;20689;-29